sensor_id;sensor_type;location;lat;lon;timestamp;temperature;humidity
55083;DHT22;40978;52.850;6.506;2023-11-21T00:00:01;8.90;99.90
55083;DHT22;40978;52.850;6.506;2023-11-21T00:02:27;9.00;99.90
55083;DHT22;40978;52.850;6.506;2023-11-21T00:04:53;9.00;99.90
55083;DHT22;40978;52.850;6.506;2023-11-21T00:07:19;9.00;99.90
55083;DHT22;40978;52.850;6.506;2023-11-21T00:09:46;9.10;99.90
55083;DHT22;40978;52.850;6.506;2023-11-21T00:12:12;9.10;99.90
55083;DHT22;40978;52.850;6.506;2023-11-21T00:14:39;9.10;99.90
55083;DHT22;40978;52.850;6.506;2023-11-21T00:17:06;9.10;99.90
55083;DHT22;40978;52.850;6.506;2023-11-21T00:19:32;9.10;99.90
55083;DHT22;40978;52.850;6.506;2023-11-21T00:21:59;9.10;99.90
55083;DHT22;40978;52.850;6.506;2023-11-21T00:24:25;9.20;99.90
55083;DHT22;40978;52.850;6.506;2023-11-21T00:26:51;9.20;99.90
55083;DHT22;40978;52.850;6.506;2023-11-21T00:29:17;9.20;99.90
55083;DHT22;40978;52.850;6.506;2023-11-21T00:31:44;9.20;99.90
55083;DHT22;40978;52.850;6.506;2023-11-21T00:34:11;9.20;99.90
55083;DHT22;40978;52.850;6.506;2023-11-21T00:36:37;9.20;99.90
55083;DHT22;40978;52.850;6.506;2023-11-21T00:39:03;9.10;99.90
55083;DHT22;40978;52.850;6.506;2023-11-21T00:41:31;9.20;99.90
55083;DHT22;40978;52.850;6.506;2023-11-21T00:43:57;9.20;99.90
55083;DHT22;40978;52.850;6.506;2023-11-21T00:46:24;9.20;99.90
55083;DHT22;40978;52.850;6.506;2023-11-21T00:48:52;9.20;99.90
55083;DHT22;40978;52.850;6.506;2023-11-21T00:51:19;9.10;99.90
55083;DHT22;40978;52.850;6.506;2023-11-21T00:53:45;9.30;99.90
55083;DHT22;40978;52.850;6.506;2023-11-21T00:56:12;9.20;99.90
55083;DHT22;40978;52.850;6.506;2023-11-21T00:58:39;9.20;99.90
55083;DHT22;40978;52.850;6.506;2023-11-21T01:01:08;9.30;99.90
55083;DHT22;40978;52.850;6.506;2023-11-21T01:03:33;9.30;99.90
55083;DHT22;40978;52.850;6.506;2023-11-21T01:05:59;9.30;99.90
55083;DHT22;40978;52.850;6.506;2023-11-21T01:08:25;9.30;99.90
55083;DHT22;40978;52.850;6.506;2023-11-21T01:10:51;9.30;99.90
55083;DHT22;40978;52.850;6.506;2023-11-21T01:13:16;9.30;99.90
55083;DHT22;40978;52.850;6.506;2023-11-21T01:15:42;9.30;99.90
55083;DHT22;40978;52.850;6.506;2023-11-21T01:18:08;9.30;99.90
55083;DHT22;40978;52.850;6.506;2023-11-21T01:20:34;9.30;99.90
55083;DHT22;40978;52.850;6.506;2023-11-21T01:23:00;9.30;99.90
55083;DHT22;40978;52.850;6.506;2023-11-21T01:25:26;9.30;99.90
55083;DHT22;40978;52.850;6.506;2023-11-21T01:27:52;9.30;99.90
55083;DHT22;40978;52.850;6.506;2023-11-21T01:30:18;9.40;99.90
55083;DHT22;40978;52.850;6.506;2023-11-21T01:32:44;9.40;99.90
55083;DHT22;40978;52.850;6.506;2023-11-21T01:35:10;9.40;99.90
55083;DHT22;40978;52.850;6.506;2023-11-21T01:37:36;9.40;99.90
55083;DHT22;40978;52.850;6.506;2023-11-21T01:40:03;9.40;99.90
55083;DHT22;40978;52.850;6.506;2023-11-21T01:42:33;9.40;99.90
55083;DHT22;40978;52.850;6.506;2023-11-21T01:45:00;9.40;99.90
55083;DHT22;40978;52.850;6.506;2023-11-21T01:47:31;9.40;99.90
55083;DHT22;40978;52.850;6.506;2023-11-21T01:49:58;9.40;99.90
55083;DHT22;40978;52.850;6.506;2023-11-21T01:52:24;9.40;99.90
55083;DHT22;40978;52.850;6.506;2023-11-21T01:54:50;9.40;99.90
55083;DHT22;40978;52.850;6.506;2023-11-21T01:57:16;9.40;99.90
55083;DHT22;40978;52.850;6.506;2023-11-21T01:59:42;9.40;99.90
55083;DHT22;40978;52.850;6.506;2023-11-21T02:02:09;9.40;99.90
55083;DHT22;40978;52.850;6.506;2023-11-21T02:04:36;9.40;99.90
55083;DHT22;40978;52.850;6.506;2023-11-21T02:07:03;9.50;99.90
55083;DHT22;40978;52.850;6.506;2023-11-21T02:09:32;9.40;99.90
55083;DHT22;40978;52.850;6.506;2023-11-21T02:11:59;9.50;99.90
55083;DHT22;40978;52.850;6.506;2023-11-21T02:14:26;9.40;99.90
55083;DHT22;40978;52.850;6.506;2023-11-21T02:16:54;9.50;99.90
55083;DHT22;40978;52.850;6.506;2023-11-21T02:19:20;9.50;99.90
55083;DHT22;40978;52.850;6.506;2023-11-21T02:21:50;9.50;99.90
55083;DHT22;40978;52.850;6.506;2023-11-21T02:24:22;9.50;99.90
55083;DHT22;40978;52.850;6.506;2023-11-21T02:26:51;9.50;99.90
55083;DHT22;40978;52.850;6.506;2023-11-21T02:29:20;9.50;99.90
55083;DHT22;40978;52.850;6.506;2023-11-21T02:31:54;9.50;99.90
55083;DHT22;40978;52.850;6.506;2023-11-21T02:34:21;9.50;99.90
55083;DHT22;40978;52.850;6.506;2023-11-21T02:36:47;9.50;99.90
55083;DHT22;40978;52.850;6.506;2023-11-21T02:39:15;9.50;99.90
55083;DHT22;40978;52.850;6.506;2023-11-21T02:41:42;9.50;99.90
55083;DHT22;40978;52.850;6.506;2023-11-21T02:44:08;9.50;99.90
55083;DHT22;40978;52.850;6.506;2023-11-21T02:46:34;9.50;99.90
55083;DHT22;40978;52.850;6.506;2023-11-21T02:49:01;9.50;99.90
55083;DHT22;40978;52.850;6.506;2023-11-21T02:51:27;9.50;99.90
55083;DHT22;40978;52.850;6.506;2023-11-21T02:53:53;9.60;99.90
55083;DHT22;40978;52.850;6.506;2023-11-21T02:56:20;9.50;99.90
55083;DHT22;40978;52.850;6.506;2023-11-21T02:58:45;9.60;99.90
55083;DHT22;40978;52.850;6.506;2023-11-21T03:01:11;9.60;99.90
55083;DHT22;40978;52.850;6.506;2023-11-21T03:03:39;9.60;99.90
55083;DHT22;40978;52.850;6.506;2023-11-21T03:06:06;9.50;99.90
55083;DHT22;40978;52.850;6.506;2023-11-21T03:08:32;9.50;99.90
55083;DHT22;40978;52.850;6.506;2023-11-21T03:10:58;9.50;99.90
55083;DHT22;40978;52.850;6.506;2023-11-21T03:13:24;9.60;99.90
55083;DHT22;40978;52.850;6.506;2023-11-21T03:15:49;9.50;99.90
55083;DHT22;40978;52.850;6.506;2023-11-21T03:18:15;9.50;99.90
55083;DHT22;40978;52.850;6.506;2023-11-21T03:20:43;9.60;99.90
55083;DHT22;40978;52.850;6.506;2023-11-21T03:23:12;9.60;99.90
55083;DHT22;40978;52.850;6.506;2023-11-21T03:25:37;9.50;99.90
55083;DHT22;40978;52.850;6.506;2023-11-21T03:28:03;9.60;99.90
55083;DHT22;40978;52.850;6.506;2023-11-21T03:30:29;9.60;99.90
55083;DHT22;40978;52.850;6.506;2023-11-21T03:32:55;9.50;99.90
55083;DHT22;40978;52.850;6.506;2023-11-21T03:35:21;9.60;99.90
55083;DHT22;40978;52.850;6.506;2023-11-21T03:37:47;9.60;99.90
55083;DHT22;40978;52.850;6.506;2023-11-21T03:40:13;9.60;99.90
55083;DHT22;40978;52.850;6.506;2023-11-21T03:42:39;9.60;99.90
55083;DHT22;40978;52.850;6.506;2023-11-21T03:45:06;9.60;99.90
55083;DHT22;40978;52.850;6.506;2023-11-21T03:47:32;9.50;99.90
55083;DHT22;40978;52.850;6.506;2023-11-21T03:49:58;9.50;99.90
55083;DHT22;40978;52.850;6.506;2023-11-21T03:52:24;9.60;99.90
55083;DHT22;40978;52.850;6.506;2023-11-21T03:54:50;9.60;99.90
55083;DHT22;40978;52.850;6.506;2023-11-21T03:57:16;9.50;99.90
55083;DHT22;40978;52.850;6.506;2023-11-21T03:59:45;9.50;99.90
55083;DHT22;40978;52.850;6.506;2023-11-21T04:02:10;9.60;99.90
55083;DHT22;40978;52.850;6.506;2023-11-21T04:04:36;9.60;99.90
55083;DHT22;40978;52.850;6.506;2023-11-21T04:07:02;9.60;99.90
55083;DHT22;40978;52.850;6.506;2023-11-21T04:09:28;9.60;99.90
55083;DHT22;40978;52.850;6.506;2023-11-21T04:11:54;9.60;99.90
55083;DHT22;40978;52.850;6.506;2023-11-21T04:14:22;9.60;99.90
55083;DHT22;40978;52.850;6.506;2023-11-21T04:16:47;9.60;99.90
55083;DHT22;40978;52.850;6.506;2023-11-21T04:19:14;9.60;99.90
55083;DHT22;40978;52.850;6.506;2023-11-21T04:21:41;9.60;99.90
55083;DHT22;40978;52.850;6.506;2023-11-21T04:24:07;9.60;99.90
55083;DHT22;40978;52.850;6.506;2023-11-21T04:26:33;9.60;99.90
55083;DHT22;40978;52.850;6.506;2023-11-21T04:28:58;9.60;99.90
55083;DHT22;40978;52.850;6.506;2023-11-21T04:31:24;9.60;99.90
55083;DHT22;40978;52.850;6.506;2023-11-21T04:33:50;9.60;99.90
55083;DHT22;40978;52.850;6.506;2023-11-21T04:36:15;9.60;99.90
55083;DHT22;40978;52.850;6.506;2023-11-21T04:38:41;9.60;99.90
55083;DHT22;40978;52.850;6.506;2023-11-21T04:41:07;9.60;99.90
55083;DHT22;40978;52.850;6.506;2023-11-21T04:43:33;9.60;99.90
55083;DHT22;40978;52.850;6.506;2023-11-21T04:45:59;9.60;99.90
55083;DHT22;40978;52.850;6.506;2023-11-21T04:48:25;9.60;99.90
55083;DHT22;40978;52.850;6.506;2023-11-21T04:50:51;9.60;99.90
55083;DHT22;40978;52.850;6.506;2023-11-21T04:53:17;9.60;99.90
55083;DHT22;40978;52.850;6.506;2023-11-21T04:55:43;9.60;99.90
55083;DHT22;40978;52.850;6.506;2023-11-21T04:58:09;9.60;99.90
55083;DHT22;40978;52.850;6.506;2023-11-21T05:00:36;9.60;99.90
55083;DHT22;40978;52.850;6.506;2023-11-21T05:03:03;9.60;99.90
55083;DHT22;40978;52.850;6.506;2023-11-21T05:05:29;9.60;99.90
55083;DHT22;40978;52.850;6.506;2023-11-21T05:07:55;9.60;99.90
55083;DHT22;40978;52.850;6.506;2023-11-21T05:10:21;9.60;99.90
55083;DHT22;40978;52.850;6.506;2023-11-21T05:12:48;9.60;99.90
55083;DHT22;40978;52.850;6.506;2023-11-21T05:15:16;9.60;99.90
55083;DHT22;40978;52.850;6.506;2023-11-21T05:17:45;9.60;99.90
55083;DHT22;40978;52.850;6.506;2023-11-21T05:20:14;9.60;99.90
55083;DHT22;40978;52.850;6.506;2023-11-21T05:22:43;9.60;99.90
55083;DHT22;40978;52.850;6.506;2023-11-21T05:25:09;9.60;99.90
55083;DHT22;40978;52.850;6.506;2023-11-21T05:27:35;9.60;99.90
55083;DHT22;40978;52.850;6.506;2023-11-21T05:30:05;9.60;99.90
55083;DHT22;40978;52.850;6.506;2023-11-21T05:32:31;9.60;99.90
55083;DHT22;40978;52.850;6.506;2023-11-21T05:34:57;9.60;99.90
55083;DHT22;40978;52.850;6.506;2023-11-21T05:37:23;9.60;99.90
55083;DHT22;40978;52.850;6.506;2023-11-21T05:39:49;9.60;99.90
55083;DHT22;40978;52.850;6.506;2023-11-21T05:42:15;9.60;99.90
55083;DHT22;40978;52.850;6.506;2023-11-21T05:44:42;9.60;99.90
55083;DHT22;40978;52.850;6.506;2023-11-21T05:47:09;9.60;99.90
55083;DHT22;40978;52.850;6.506;2023-11-21T05:49:35;9.60;99.90
55083;DHT22;40978;52.850;6.506;2023-11-21T05:52:01;9.60;99.90
55083;DHT22;40978;52.850;6.506;2023-11-21T05:54:27;9.60;99.90
55083;DHT22;40978;52.850;6.506;2023-11-21T05:56:52;9.60;99.90
55083;DHT22;40978;52.850;6.506;2023-11-21T05:59:18;9.60;99.90
55083;DHT22;40978;52.850;6.506;2023-11-21T06:01:46;9.60;99.90
55083;DHT22;40978;52.850;6.506;2023-11-21T06:04:12;9.60;99.90
55083;DHT22;40978;52.850;6.506;2023-11-21T06:06:38;9.50;99.90
55083;DHT22;40978;52.850;6.506;2023-11-21T06:09:04;9.60;99.90
55083;DHT22;40978;52.850;6.506;2023-11-21T06:11:31;9.60;99.90
55083;DHT22;40978;52.850;6.506;2023-11-21T06:13:58;9.60;99.90
55083;DHT22;40978;52.850;6.506;2023-11-21T06:16:23;9.50;99.90
55083;DHT22;40978;52.850;6.506;2023-11-21T06:18:49;9.60;99.90
55083;DHT22;40978;52.850;6.506;2023-11-21T06:21:15;9.60;99.90
55083;DHT22;40978;52.850;6.506;2023-11-21T06:23:42;9.60;99.90
55083;DHT22;40978;52.850;6.506;2023-11-21T06:26:08;9.60;99.90
55083;DHT22;40978;52.850;6.506;2023-11-21T06:28:35;9.60;99.90
55083;DHT22;40978;52.850;6.506;2023-11-21T06:31:01;9.60;99.90
55083;DHT22;40978;52.850;6.506;2023-11-21T06:33:31;9.60;99.90
55083;DHT22;40978;52.850;6.506;2023-11-21T06:35:57;9.60;99.90
55083;DHT22;40978;52.850;6.506;2023-11-21T06:38:23;9.60;99.90
55083;DHT22;40978;52.850;6.506;2023-11-21T06:40:49;9.60;99.90
55083;DHT22;40978;52.850;6.506;2023-11-21T06:43:14;9.60;99.90
55083;DHT22;40978;52.850;6.506;2023-11-21T06:45:40;9.60;99.90
55083;DHT22;40978;52.850;6.506;2023-11-21T06:48:06;9.60;99.90
55083;DHT22;40978;52.850;6.506;2023-11-21T06:50:32;9.60;99.90
55083;DHT22;40978;52.850;6.506;2023-11-21T06:52:58;9.60;99.90
55083;DHT22;40978;52.850;6.506;2023-11-21T06:55:24;9.60;99.90
55083;DHT22;40978;52.850;6.506;2023-11-21T06:57:49;9.60;99.90
55083;DHT22;40978;52.850;6.506;2023-11-21T07:00:16;9.60;99.90
55083;DHT22;40978;52.850;6.506;2023-11-21T07:02:43;9.60;99.90
55083;DHT22;40978;52.850;6.506;2023-11-21T07:05:09;9.60;99.90
55083;DHT22;40978;52.850;6.506;2023-11-21T07:07:35;9.60;99.90
55083;DHT22;40978;52.850;6.506;2023-11-21T07:10:03;9.60;99.90
55083;DHT22;40978;52.850;6.506;2023-11-21T07:12:32;9.60;99.90
55083;DHT22;40978;52.850;6.506;2023-11-21T07:14:58;9.60;99.90
55083;DHT22;40978;52.850;6.506;2023-11-21T07:17:23;9.70;99.90
55083;DHT22;40978;52.850;6.506;2023-11-21T07:19:49;9.60;99.90
55083;DHT22;40978;52.850;6.506;2023-11-21T07:22:16;9.70;99.90
55083;DHT22;40978;52.850;6.506;2023-11-21T07:24:49;9.70;99.90
55083;DHT22;40978;52.850;6.506;2023-11-21T07:27:17;9.70;99.90
55083;DHT22;40978;52.850;6.506;2023-11-21T07:29:44;9.60;99.90
55083;DHT22;40978;52.850;6.506;2023-11-21T07:32:10;9.70;99.90
55083;DHT22;40978;52.850;6.506;2023-11-21T07:34:36;9.70;99.90
55083;DHT22;40978;52.850;6.506;2023-11-21T07:37:02;9.70;99.90
55083;DHT22;40978;52.850;6.506;2023-11-21T07:39:28;9.70;99.90
55083;DHT22;40978;52.850;6.506;2023-11-21T07:41:54;9.70;99.90
55083;DHT22;40978;52.850;6.506;2023-11-21T07:44:20;9.70;99.90
55083;DHT22;40978;52.850;6.506;2023-11-21T07:46:46;9.70;99.90
55083;DHT22;40978;52.850;6.506;2023-11-21T07:49:12;9.70;99.90
55083;DHT22;40978;52.850;6.506;2023-11-21T07:51:42;9.70;99.90
55083;DHT22;40978;52.850;6.506;2023-11-21T07:54:07;9.70;99.90
55083;DHT22;40978;52.850;6.506;2023-11-21T07:56:33;9.70;99.90
55083;DHT22;40978;52.850;6.506;2023-11-21T07:58:59;9.70;99.90
55083;DHT22;40978;52.850;6.506;2023-11-21T08:01:25;9.70;99.90
55083;DHT22;40978;52.850;6.506;2023-11-21T08:03:50;9.70;99.90
55083;DHT22;40978;52.850;6.506;2023-11-21T08:06:18;9.70;99.90
55083;DHT22;40978;52.850;6.506;2023-11-21T08:08:43;9.70;99.90
55083;DHT22;40978;52.850;6.506;2023-11-21T08:11:09;9.80;99.90
55083;DHT22;40978;52.850;6.506;2023-11-21T08:13:36;9.80;99.90
55083;DHT22;40978;52.850;6.506;2023-11-21T08:16:02;9.80;99.90
55083;DHT22;40978;52.850;6.506;2023-11-21T08:18:30;9.80;99.90
55083;DHT22;40978;52.850;6.506;2023-11-21T08:20:56;9.80;99.90
55083;DHT22;40978;52.850;6.506;2023-11-21T08:23:22;9.80;99.90
55083;DHT22;40978;52.850;6.506;2023-11-21T08:25:54;9.80;99.90
55083;DHT22;40978;52.850;6.506;2023-11-21T08:28:21;9.80;99.90
55083;DHT22;40978;52.850;6.506;2023-11-21T08:30:52;9.80;99.90
55083;DHT22;40978;52.850;6.506;2023-11-21T08:33:19;9.90;99.90
55083;DHT22;40978;52.850;6.506;2023-11-21T08:35:45;9.90;99.90
55083;DHT22;40978;52.850;6.506;2023-11-21T08:38:12;9.90;99.90
55083;DHT22;40978;52.850;6.506;2023-11-21T08:40:38;9.90;99.90
55083;DHT22;40978;52.850;6.506;2023-11-21T08:43:04;9.90;99.90
55083;DHT22;40978;52.850;6.506;2023-11-21T08:45:33;9.90;99.90
55083;DHT22;40978;52.850;6.506;2023-11-21T08:48:00;9.90;99.90
55083;DHT22;40978;52.850;6.506;2023-11-21T08:50:26;9.90;99.90
55083;DHT22;40978;52.850;6.506;2023-11-21T08:52:52;9.90;99.90
55083;DHT22;40978;52.850;6.506;2023-11-21T08:55:18;9.90;99.90
55083;DHT22;40978;52.850;6.506;2023-11-21T08:57:45;9.90;99.90
55083;DHT22;40978;52.850;6.506;2023-11-21T09:00:14;9.80;99.90
55083;DHT22;40978;52.850;6.506;2023-11-21T09:02:43;9.80;99.90
55083;DHT22;40978;52.850;6.506;2023-11-21T09:05:13;9.70;99.90
55083;DHT22;40978;52.850;6.506;2023-11-21T09:07:40;9.70;99.90
55083;DHT22;40978;52.850;6.506;2023-11-21T09:10:07;9.60;99.90
55083;DHT22;40978;52.850;6.506;2023-11-21T09:12:35;9.70;99.90
55083;DHT22;40978;52.850;6.506;2023-11-21T09:15:05;9.60;99.90
55083;DHT22;40978;52.850;6.506;2023-11-21T09:17:35;9.60;99.90
55083;DHT22;40978;52.850;6.506;2023-11-21T09:20:01;9.50;99.90
55083;DHT22;40978;52.850;6.506;2023-11-21T09:22:28;9.50;99.90
55083;DHT22;40978;52.850;6.506;2023-11-21T09:24:55;9.50;99.90
55083;DHT22;40978;52.850;6.506;2023-11-21T09:27:23;9.50;99.90
55083;DHT22;40978;52.850;6.506;2023-11-21T09:29:49;9.50;99.90
55083;DHT22;40978;52.850;6.506;2023-11-21T09:32:15;9.50;99.90
55083;DHT22;40978;52.850;6.506;2023-11-21T09:34:41;9.50;99.90
55083;DHT22;40978;52.850;6.506;2023-11-21T09:37:07;9.50;99.90
55083;DHT22;40978;52.850;6.506;2023-11-21T09:39:34;9.50;99.90
55083;DHT22;40978;52.850;6.506;2023-11-21T09:42:12;9.50;99.90
55083;DHT22;40978;52.850;6.506;2023-11-21T09:44:54;9.40;99.90
55083;DHT22;40978;52.850;6.506;2023-11-21T09:47:22;9.40;99.90
55083;DHT22;40978;52.850;6.506;2023-11-21T09:49:48;9.40;99.90
55083;DHT22;40978;52.850;6.506;2023-11-21T09:52:26;9.40;99.90
55083;DHT22;40978;52.850;6.506;2023-11-21T09:54:55;9.40;99.90
55083;DHT22;40978;52.850;6.506;2023-11-21T09:57:25;9.30;99.90
55083;DHT22;40978;52.850;6.506;2023-11-21T09:59:51;9.20;99.90
55083;DHT22;40978;52.850;6.506;2023-11-21T10:02:26;9.20;99.90
55083;DHT22;40978;52.850;6.506;2023-11-21T10:04:54;9.20;99.90
55083;DHT22;40978;52.850;6.506;2023-11-21T10:07:21;9.20;99.90
55083;DHT22;40978;52.850;6.506;2023-11-21T10:10:10;9.20;99.90
55083;DHT22;40978;52.850;6.506;2023-11-21T10:12:37;9.20;99.90
55083;DHT22;40978;52.850;6.506;2023-11-21T10:15:08;9.20;99.90
55083;DHT22;40978;52.850;6.506;2023-11-21T10:17:36;9.20;99.90
55083;DHT22;40978;52.850;6.506;2023-11-21T10:20:11;9.20;99.90
55083;DHT22;40978;52.850;6.506;2023-11-21T10:22:40;9.20;99.90
55083;DHT22;40978;52.850;6.506;2023-11-21T10:25:08;9.10;99.90
55083;DHT22;40978;52.850;6.506;2023-11-21T10:27:37;9.20;99.90
55083;DHT22;40978;52.850;6.506;2023-11-21T10:30:09;9.20;99.90
55083;DHT22;40978;52.850;6.506;2023-11-21T10:32:39;9.20;99.90
55083;DHT22;40978;52.850;6.506;2023-11-21T10:35:09;9.10;99.90
55083;DHT22;40978;52.850;6.506;2023-11-21T10:37:39;9.10;99.90
55083;DHT22;40978;52.850;6.506;2023-11-21T10:40:09;9.10;99.90
55083;DHT22;40978;52.850;6.506;2023-11-21T10:42:40;9.10;99.90
55083;DHT22;40978;52.850;6.506;2023-11-21T10:45:07;9.10;99.90
55083;DHT22;40978;52.850;6.506;2023-11-21T10:47:41;9.20;99.90
55083;DHT22;40978;52.850;6.506;2023-11-21T10:50:07;9.20;99.90
55083;DHT22;40978;52.850;6.506;2023-11-21T10:52:37;9.10;99.90
55083;DHT22;40978;52.850;6.506;2023-11-21T10:55:25;9.20;99.90
55083;DHT22;40978;52.850;6.506;2023-11-21T10:57:55;9.10;99.90
55083;DHT22;40978;52.850;6.506;2023-11-21T11:00:23;9.10;99.90
55083;DHT22;40978;52.850;6.506;2023-11-21T11:02:51;9.00;99.90
55083;DHT22;40978;52.850;6.506;2023-11-21T11:05:21;8.90;99.90
55083;DHT22;40978;52.850;6.506;2023-11-21T11:07:51;8.90;99.90
55083;DHT22;40978;52.850;6.506;2023-11-21T11:10:28;8.90;99.90
55083;DHT22;40978;52.850;6.506;2023-11-21T11:12:55;8.90;99.90
55083;DHT22;40978;52.850;6.506;2023-11-21T11:15:23;8.90;99.90
55083;DHT22;40978;52.850;6.506;2023-11-21T11:17:49;8.90;99.90
55083;DHT22;40978;52.850;6.506;2023-11-21T11:20:16;8.90;99.90
55083;DHT22;40978;52.850;6.506;2023-11-21T11:28:10;8.80;99.90
55083;DHT22;40978;52.850;6.506;2023-11-21T11:30:53;8.90;99.90
55083;DHT22;40978;52.850;6.506;2023-11-21T11:33:47;9.00;99.90
55083;DHT22;40978;52.850;6.506;2023-11-21T11:38:58;9.20;99.90
55083;DHT22;40978;52.850;6.506;2023-11-21T11:41:29;9.30;99.90
55083;DHT22;40978;52.850;6.506;2023-11-21T11:43:56;9.30;99.90
55083;DHT22;40978;52.850;6.506;2023-11-21T11:46:43;9.30;99.90
55083;DHT22;40978;52.850;6.506;2023-11-21T11:49:23;9.20;99.90
55083;DHT22;40978;52.850;6.506;2023-11-21T11:54:55;9.20;99.90
55083;DHT22;40978;52.850;6.506;2023-11-21T11:57:24;9.30;99.90
55083;DHT22;40978;52.850;6.506;2023-11-21T12:00:16;9.20;99.90
55083;DHT22;40978;52.850;6.506;2023-11-21T12:02:45;9.20;99.90
55083;DHT22;40978;52.850;6.506;2023-11-21T12:05:11;9.10;99.90
55083;DHT22;40978;52.850;6.506;2023-11-21T12:07:51;9.00;99.90
55083;DHT22;40978;52.850;6.506;2023-11-21T12:10:27;9.00;99.90
55083;DHT22;40978;52.850;6.506;2023-11-21T12:12:55;8.90;99.90
55083;DHT22;40978;52.850;6.506;2023-11-21T12:15:22;8.90;99.90
55083;DHT22;40978;52.850;6.506;2023-11-21T12:17:49;8.90;99.90
55083;DHT22;40978;52.850;6.506;2023-11-21T12:20:20;9.00;99.90
55083;DHT22;40978;52.850;6.506;2023-11-21T12:22:47;8.90;99.90
55083;DHT22;40978;52.850;6.506;2023-11-21T12:25:26;9.00;99.90
55083;DHT22;40978;52.850;6.506;2023-11-21T12:28:12;9.00;99.90
55083;DHT22;40978;52.850;6.506;2023-11-21T12:30:38;9.00;99.90
55083;DHT22;40978;52.850;6.506;2023-11-21T12:33:05;9.00;99.90
55083;DHT22;40978;52.850;6.506;2023-11-21T12:35:34;9.10;99.90
55083;DHT22;40978;52.850;6.506;2023-11-21T12:38:02;9.10;99.90
55083;DHT22;40978;52.850;6.506;2023-11-21T12:40:28;9.10;99.90
55083;DHT22;40978;52.850;6.506;2023-11-21T12:42:58;9.10;99.90
55083;DHT22;40978;52.850;6.506;2023-11-21T12:45:26;9.10;99.90
55083;DHT22;40978;52.850;6.506;2023-11-21T12:48:00;9.20;99.90
55083;DHT22;40978;52.850;6.506;2023-11-21T12:50:29;9.20;99.90
55083;DHT22;40978;52.850;6.506;2023-11-21T12:53:08;9.30;99.90
55083;DHT22;40978;52.850;6.506;2023-11-21T12:55:35;9.30;99.90
55083;DHT22;40978;52.850;6.506;2023-11-21T12:58:04;9.30;99.90
55083;DHT22;40978;52.850;6.506;2023-11-21T13:00:42;9.30;99.90
55083;DHT22;40978;52.850;6.506;2023-11-21T13:03:10;9.30;99.90
55083;DHT22;40978;52.850;6.506;2023-11-21T13:05:39;9.30;99.90
55083;DHT22;40978;52.850;6.506;2023-11-21T13:08:06;9.30;99.90
55083;DHT22;40978;52.850;6.506;2023-11-21T13:10:40;9.20;99.90
55083;DHT22;40978;52.850;6.506;2023-11-21T13:13:08;9.20;99.90
55083;DHT22;40978;52.850;6.506;2023-11-21T13:15:39;9.10;99.90
55083;DHT22;40978;52.850;6.506;2023-11-21T13:18:06;9.10;99.90
55083;DHT22;40978;52.850;6.506;2023-11-21T13:20:32;9.20;99.90
55083;DHT22;40978;52.850;6.506;2023-11-21T13:22:58;9.20;99.90
55083;DHT22;40978;52.850;6.506;2023-11-21T13:25:29;9.10;99.90
55083;DHT22;40978;52.850;6.506;2023-11-21T13:28:00;9.10;99.90
55083;DHT22;40978;52.850;6.506;2023-11-21T13:30:28;9.10;99.90
55083;DHT22;40978;52.850;6.506;2023-11-21T13:33:04;9.10;99.90
55083;DHT22;40978;52.850;6.506;2023-11-21T13:35:38;9.10;99.90
55083;DHT22;40978;52.850;6.506;2023-11-21T13:38:24;9.10;99.90
55083;DHT22;40978;52.850;6.506;2023-11-21T13:40:52;9.00;99.90
55083;DHT22;40978;52.850;6.506;2023-11-21T13:43:25;9.00;99.90
55083;DHT22;40978;52.850;6.506;2023-11-21T13:45:52;8.90;99.90
55083;DHT22;40978;52.850;6.506;2023-11-21T13:48:26;8.90;99.90
55083;DHT22;40978;52.850;6.506;2023-11-21T13:50:59;8.80;99.90
55083;DHT22;40978;52.850;6.506;2023-11-21T13:53:34;8.80;99.90
55083;DHT22;40978;52.850;6.506;2023-11-21T13:56:03;8.80;99.90
55083;DHT22;40978;52.850;6.506;2023-11-21T13:58:29;8.70;99.90
55083;DHT22;40978;52.850;6.506;2023-11-21T14:01:13;8.70;99.90
55083;DHT22;40978;52.850;6.506;2023-11-21T14:03:58;8.60;99.90
55083;DHT22;40978;52.850;6.506;2023-11-21T14:06:34;8.50;99.90
55083;DHT22;40978;52.850;6.506;2023-11-21T14:09:05;8.50;99.90
55083;DHT22;40978;52.850;6.506;2023-11-21T14:11:33;8.50;99.90
55083;DHT22;40978;52.850;6.506;2023-11-21T14:14:02;8.50;99.90
55083;DHT22;40978;52.850;6.506;2023-11-21T14:16:28;8.60;99.90
55083;DHT22;40978;52.850;6.506;2023-11-21T14:18:54;8.60;99.90
55083;DHT22;40978;52.850;6.506;2023-11-21T14:21:29;8.70;99.90
55083;DHT22;40978;52.850;6.506;2023-11-21T14:23:55;8.70;99.90
55083;DHT22;40978;52.850;6.506;2023-11-21T14:26:21;8.70;99.90
55083;DHT22;40978;52.850;6.506;2023-11-21T14:28:46;8.70;99.90
55083;DHT22;40978;52.850;6.506;2023-11-21T14:31:14;8.70;99.90
55083;DHT22;40978;52.850;6.506;2023-11-21T14:33:43;8.70;99.90
55083;DHT22;40978;52.850;6.506;2023-11-21T14:36:09;8.70;99.90
55083;DHT22;40978;52.850;6.506;2023-11-21T14:38:38;8.70;99.90
55083;DHT22;40978;52.850;6.506;2023-11-21T14:41:05;8.70;99.90
55083;DHT22;40978;52.850;6.506;2023-11-21T14:43:37;8.70;99.90
55083;DHT22;40978;52.850;6.506;2023-11-21T14:46:04;8.70;99.90
55083;DHT22;40978;52.850;6.506;2023-11-21T14:48:34;8.70;99.90
55083;DHT22;40978;52.850;6.506;2023-11-21T14:51:09;8.60;99.90
55083;DHT22;40978;52.850;6.506;2023-11-21T14:53:40;8.60;99.90
55083;DHT22;40978;52.850;6.506;2023-11-21T14:56:20;8.60;99.90
55083;DHT22;40978;52.850;6.506;2023-11-21T14:58:53;8.60;99.90
55083;DHT22;40978;52.850;6.506;2023-11-21T15:01:20;8.60;99.90
55083;DHT22;40978;52.850;6.506;2023-11-21T15:03:59;8.60;99.90
55083;DHT22;40978;52.850;6.506;2023-11-21T15:06:25;8.50;99.90
55083;DHT22;40978;52.850;6.506;2023-11-21T15:08:57;8.50;99.90
55083;DHT22;40978;52.850;6.506;2023-11-21T15:11:46;8.50;99.90
55083;DHT22;40978;52.850;6.506;2023-11-21T15:14:13;8.50;99.90
55083;DHT22;40978;52.850;6.506;2023-11-21T15:16:45;8.50;99.90
55083;DHT22;40978;52.850;6.506;2023-11-21T15:19:16;8.40;99.90
55083;DHT22;40978;52.850;6.506;2023-11-21T15:21:44;8.50;99.90
55083;DHT22;40978;52.850;6.506;2023-11-21T15:24:12;8.40;99.90
55083;DHT22;40978;52.850;6.506;2023-11-21T15:26:37;8.40;99.90
55083;DHT22;40978;52.850;6.506;2023-11-21T15:29:35;8.30;99.90
55083;DHT22;40978;52.850;6.506;2023-11-21T15:32:08;8.40;99.90
55083;DHT22;40978;52.850;6.506;2023-11-21T15:34:35;8.40;99.90
55083;DHT22;40978;52.850;6.506;2023-11-21T15:37:01;8.40;99.90
55083;DHT22;40978;52.850;6.506;2023-11-21T15:39:28;8.30;99.90
55083;DHT22;40978;52.850;6.506;2023-11-21T15:41:59;8.40;99.90
55083;DHT22;40978;52.850;6.506;2023-11-21T15:44:27;8.40;99.90
55083;DHT22;40978;52.850;6.506;2023-11-21T15:46:54;8.30;99.90
55083;DHT22;40978;52.850;6.506;2023-11-21T15:49:20;8.30;99.90
55083;DHT22;40978;52.850;6.506;2023-11-21T15:51:48;8.30;99.90
55083;DHT22;40978;52.850;6.506;2023-11-21T15:54:33;8.30;99.90
55083;DHT22;40978;52.850;6.506;2023-11-21T15:57:00;8.20;99.90
55083;DHT22;40978;52.850;6.506;2023-11-21T15:59:26;8.20;99.90
55083;DHT22;40978;52.850;6.506;2023-11-21T16:01:57;8.20;99.90